createdAt,value
2018-10-18T00:01:25.274Z,65.60
2018-10-18T00:03:54.418Z,61.23
2018-10-18T00:06:23.580Z,61.60
2018-10-18T00:08:52.751Z,68.03
2018-10-18T00:11:21.968Z,61.77
2018-10-18T00:13:51.134Z,63.83
2018-10-18T00:16:20.352Z,62.67
2018-10-18T00:18:49.544Z,63.20
2018-10-18T00:21:18.721Z,66.90
2018-10-18T00:23:47.891Z,62.83
2018-10-18T00:26:17.106Z,64.87
2018-10-18T00:28:46.225Z,63.87
2018-10-18T00:31:15.382Z,63.07
2018-10-18T00:33:44.614Z,63.90
2018-10-18T00:36:13.795Z,62.27
2018-10-18T00:38:42.920Z,62.20
2018-10-18T00:41:12.072Z,62.17
2018-10-18T00:43:41.213Z,62.90
2018-10-18T00:46:10.385Z,62.40
2018-10-18T00:48:39.688Z,63.20
2018-10-18T00:51:09.308Z,59.90
2018-10-18T00:53:38.481Z,62.20
2018-10-18T00:56:07.749Z,61.37
2018-10-18T00:58:36.800Z,62.10
2018-10-18T01:01:06.380Z,65.23
2018-10-18T01:03:35.579Z,66.37
2018-10-18T01:06:04.927Z,65.70
2018-10-18T01:08:34.153Z,65.07
2018-10-18T01:11:03.392Z,68.03
2018-10-18T01:13:32.566Z,69.50
2018-10-18T01:16:01.757Z,67.87
2018-10-18T01:18:30.957Z,69.00
2018-10-18T01:21:00.129Z,65.60
2018-10-18T01:23:29.476Z,60.00
2018-10-18T01:25:58.627Z,59.70
2018-10-18T01:28:27.910Z,57.87
2018-10-18T01:30:57.061Z,62.10
2018-10-18T01:33:26.246Z,59.80
2018-10-18T01:35:55.437Z,59.47
2018-10-18T01:38:24.577Z,57.23
2018-10-18T01:40:53.728Z,56.97
2018-10-18T01:43:22.867Z,56.87
2018-10-18T01:45:52.061Z,58.77
2018-10-18T01:48:21.213Z,60.70
2018-10-18T01:50:50.374Z,59.50
2018-10-18T01:53:19.542Z,58.17
2018-10-18T01:55:48.705Z,59.70
2018-10-18T01:58:18.353Z,59.63
2018-10-18T02:00:47.669Z,61.57
2018-10-18T02:03:16.855Z,60.33
2018-10-18T02:05:46.034Z,66.30
2018-10-18T02:08:15.218Z,65.00
2018-10-18T02:10:44.389Z,60.40
2018-10-18T02:13:13.537Z,64.60
2018-10-18T02:15:42.830Z,60.40
2018-10-18T02:18:12.112Z,61.60
2018-10-18T02:20:41.169Z,60.40
2018-10-18T02:23:10.403Z,59.57
2018-10-18T02:25:39.534Z,56.53
2018-10-18T02:28:08.702Z,61.33
2018-10-18T02:30:37.931Z,61.67
2018-10-18T02:33:07.281Z,64.53
2018-10-18T02:35:36.475Z,60.23
2018-10-18T02:38:05.721Z,60.30
2018-10-18T02:40:35.073Z,55.23
2018-10-18T02:43:04.614Z,56.97
2018-10-18T02:45:33.774Z,58.00
2018-10-18T02:48:03.051Z,56.80
2018-10-18T02:50:32.131Z,57.17
2018-10-18T02:53:01.308Z,57.10
2018-10-18T02:55:30.426Z,54.27
2018-10-18T02:57:59.573Z,56.23
2018-10-18T03:00:28.764Z,58.63
2018-10-18T03:02:57.900Z,58.70
2018-10-18T03:05:27.040Z,59.07
2018-10-18T03:07:56.259Z,55.60
2018-10-18T03:10:25.461Z,58.70
2018-10-18T03:12:54.578Z,56.73
2018-10-18T03:15:23.761Z,58.13
2018-10-18T03:17:52.909Z,57.40
2018-10-18T03:20:22.086Z,56.90
2018-10-18T03:22:51.294Z,56.27
2018-10-18T03:25:20.427Z,54.13
2018-10-18T03:27:49.587Z,57.30
2018-10-18T03:30:18.861Z,62.20
2018-10-18T03:32:47.920Z,64.20
2018-10-18T03:35:17.056Z,61.80
2018-10-18T03:37:46.215Z,62.10
2018-10-18T03:40:17.040Z,64.17
2018-10-18T03:42:46.261Z,64.10
2018-10-18T03:45:15.694Z,63.67
2018-10-18T03:47:45.333Z,64.67
2018-10-18T03:50:14.534Z,65.50
2018-10-18T03:52:43.813Z,64.00
2018-10-18T03:55:13.555Z,64.87
2018-10-18T03:57:43.084Z,68.27
2018-10-18T04:00:12.402Z,69.40
2018-10-18T04:02:41.532Z,62.80
2018-10-18T04:05:11.039Z,64.50
2018-10-18T04:07:40.262Z,65.67
2018-10-18T04:10:09.419Z,61.87
2018-10-18T04:12:38.637Z,64.07
2018-10-18T04:15:08.409Z,64.90
2018-10-18T04:17:37.601Z,63.33
2018-10-18T04:20:07.552Z,63.37
2018-10-18T04:22:36.739Z,66.73
2018-10-18T04:25:06.920Z,60.13
2018-10-18T04:27:36.057Z,61.50
2018-10-18T04:30:06.069Z,62.73
2018-10-18T04:32:35.179Z,64.73
2018-10-18T04:35:04.731Z,64.67
2018-10-18T04:37:34.020Z,63.57
2018-10-18T04:40:03.130Z,63.17
2018-10-18T04:42:32.291Z,62.70
2018-10-18T04:45:01.440Z,66.10
2018-10-18T04:47:34.237Z,64.40
2018-10-18T04:50:03.419Z,63.53
2018-10-18T04:52:32.620Z,69.27
2018-10-18T04:55:01.900Z,67.07
2018-10-18T04:57:31.045Z,65.20
2018-10-18T05:00:00.151Z,62.40
2018-10-18T05:02:29.373Z,64.90
2018-10-18T05:05:09.810Z,63.03
2018-10-18T05:07:38.998Z,62.87
2018-10-18T05:10:08.170Z,64.37
2018-10-18T05:12:37.387Z,62.87
2018-10-18T05:15:07.885Z,67.47
2018-10-18T05:17:37.775Z,67.40
2018-10-18T05:20:07.165Z,63.17
2018-10-18T05:22:36.302Z,66.80
2018-10-18T05:25:05.989Z,69.93
2018-10-18T05:27:35.117Z,65.23
2018-10-18T05:30:04.739Z,65.97
2018-10-18T05:32:33.885Z,64.40
2018-10-18T05:35:05.238Z,68.60
2018-10-18T05:37:34.557Z,70.17
2018-10-18T05:40:03.644Z,65.87
2018-10-18T05:42:32.781Z,66.80
2018-10-18T05:45:01.959Z,60.97
2018-10-18T05:47:31.084Z,61.70
2018-10-18T05:50:00.323Z,62.97
2018-10-18T05:52:29.489Z,62.30
2018-10-18T05:54:58.725Z,64.50
2018-10-18T05:57:27.948Z,64.50
2018-10-18T05:59:57.215Z,63.10
2018-10-18T06:02:26.407Z,65.07
2018-10-18T06:04:55.635Z,63.30
2018-10-18T06:07:24.868Z,67.87
2018-10-18T06:09:54.160Z,67.60
2018-10-18T06:12:23.337Z,67.07
2018-10-18T06:14:52.594Z,66.10
2018-10-18T06:17:22.353Z,65.17
2018-10-18T06:19:51.583Z,65.10
2018-10-18T06:22:20.940Z,72.80
2018-10-18T06:24:50.219Z,73.83
2018-10-18T06:27:19.493Z,74.40
2018-10-18T06:29:48.695Z,66.53
2018-10-18T06:32:17.908Z,72.20
2018-10-18T06:34:47.147Z,72.60
2018-10-18T06:37:16.460Z,72.40
2018-10-18T06:39:45.593Z,76.50
2018-10-18T06:42:14.828Z,73.67
2018-10-18T06:44:44.374Z,79.10
2018-10-18T06:47:13.675Z,78.10
2018-10-18T06:49:42.951Z,79.50
2018-10-18T06:52:12.219Z,71.07
2018-10-18T06:54:41.464Z,73.70
2018-10-18T06:57:10.722Z,72.80
2018-10-18T06:59:39.932Z,72.47
2018-10-18T07:02:10.758Z,73.90
2018-10-18T07:04:40.015Z,78.20
2018-10-18T07:07:09.313Z,72.17
2018-10-18T07:09:38.585Z,72.67
2018-10-18T07:12:08.115Z,74.10
2018-10-18T07:14:37.420Z,75.40
2018-10-18T07:17:06.811Z,73.80
2018-10-18T07:19:36.363Z,73.87
2018-10-18T07:22:05.652Z,70.57
2018-10-18T07:24:34.878Z,73.00
2018-10-18T07:27:04.197Z,70.30
2018-10-18T07:29:33.407Z,69.70
2018-10-18T07:32:02.633Z,71.47
2018-10-18T07:34:31.856Z,69.70
2018-10-18T07:37:01.136Z,72.40
2018-10-18T07:39:30.326Z,74.40
2018-10-18T07:41:59.658Z,80.80
2018-10-18T07:44:28.879Z,79.50
2018-10-18T07:46:58.279Z,75.53
2018-10-18T07:49:27.352Z,71.90
2018-10-18T07:51:56.670Z,74.63
2018-10-18T07:54:25.886Z,71.37
2018-10-18T07:56:55.111Z,74.50
2018-10-18T07:59:24.317Z,76.07
2018-10-18T08:01:53.575Z,74.27
2018-10-18T08:04:22.866Z,67.20
2018-10-18T08:06:52.076Z,72.07
2018-10-18T08:09:21.295Z,70.00
2018-10-18T08:11:50.550Z,65.23
2018-10-18T08:14:19.778Z,66.90
2018-10-18T08:16:49.011Z,67.17
2018-10-18T08:19:18.358Z,64.90
2018-10-18T08:21:47.478Z,68.23
2018-10-18T08:24:16.691Z,66.37
2018-10-18T08:26:45.942Z,63.23
2018-10-18T08:29:15.146Z,62.17
2018-10-18T08:31:44.350Z,63.83
2018-10-18T08:34:13.585Z,65.20
2018-10-18T08:36:42.800Z,67.37
2018-10-18T08:39:12.463Z,64.10
2018-10-18T08:41:41.944Z,64.73
2018-10-18T08:44:11.292Z,64.03
2018-10-18T08:46:40.512Z,65.13
2018-10-18T08:49:09.800Z,61.17
2018-10-18T08:51:39.017Z,62.63
2018-10-18T08:54:08.318Z,62.50
2018-10-18T08:56:37.599Z,62.77
2018-10-18T08:59:06.877Z,63.10
2018-10-18T09:01:36.131Z,64.40
2018-10-18T09:04:05.491Z,63.93
2018-10-18T09:06:34.698Z,64.13
2018-10-18T09:09:07.102Z,63.47
2018-10-18T09:11:36.385Z,61.20
2018-10-18T09:14:07.206Z,65.07
2018-10-18T09:16:36.448Z,68.20
2018-10-18T09:19:07.176Z,69.43
2018-10-18T09:21:36.392Z,70.50
2018-10-18T09:24:06.072Z,69.17
2018-10-18T09:26:35.334Z,71.17
2018-10-18T09:29:04.639Z,72.77
2018-10-18T09:31:33.892Z,71.40
2018-10-18T09:34:03.125Z,74.10
2018-10-18T09:36:32.529Z,70.53
2018-10-18T09:39:01.796Z,69.27
2018-10-18T09:41:31.096Z,73.73
2018-10-18T09:44:04.514Z,73.30
2018-10-18T09:46:35.040Z,72.70
2018-10-18T09:49:04.752Z,73.07
2018-10-18T09:51:34.076Z,73.30
2018-10-18T09:54:03.943Z,71.80
2018-10-18T09:56:33.626Z,75.30
2018-10-18T09:59:03.280Z,80.07
2018-10-18T10:01:37.743Z,76.20
2018-10-18T10:04:07.018Z,72.43
2018-10-18T10:06:36.394Z,74.23
2018-10-18T10:09:07.662Z,76.50
2018-10-18T10:11:36.940Z,78.13
2018-10-18T10:14:06.275Z,77.33
2018-10-18T10:16:35.498Z,74.53
2018-10-18T10:19:04.979Z,78.83
2018-10-18T10:21:34.191Z,74.30
2018-10-18T10:24:03.389Z,78.87
2018-10-18T10:26:32.644Z,77.80
2018-10-18T10:29:01.871Z,75.93
2018-10-18T10:31:31.218Z,72.30
2018-10-18T10:34:00.452Z,76.40
2018-10-18T10:36:29.753Z,81.00
2018-10-18T10:38:59.018Z,72.53
2018-10-18T10:41:28.174Z,80.23
2018-10-18T10:43:57.387Z,78.73
2018-10-18T10:46:27.191Z,76.87
2018-10-18T10:48:56.477Z,81.67
2018-10-18T10:51:25.714Z,75.37
2018-10-18T10:53:55.010Z,74.77
2018-10-18T10:56:24.203Z,75.57
2018-10-18T10:58:54.312Z,75.20
2018-10-18T11:01:25.698Z,72.97
2018-10-18T11:03:56.642Z,73.93
2018-10-18T11:06:26.342Z,72.33
2018-10-18T11:08:55.610Z,73.47
2018-10-18T11:11:24.906Z,71.77
2018-10-18T11:13:54.191Z,69.90
2018-10-18T11:16:27.055Z,66.77
2018-10-18T11:18:56.496Z,69.90
2018-10-18T11:21:26.648Z,67.73
2018-10-18T11:23:55.882Z,65.17
2018-10-18T11:26:25.113Z,62.87
2018-10-18T11:28:54.389Z,67.83
2018-10-18T11:31:23.602Z,63.37
2018-10-18T11:33:52.851Z,62.50
2018-10-18T11:36:22.073Z,61.60
2018-10-18T11:38:51.343Z,63.63
2018-10-18T11:41:28.043Z,61.27
2018-10-18T11:44:04.777Z,59.73
2018-10-18T11:46:41.473Z,56.10
2018-10-18T11:49:18.207Z,54.70
2018-10-18T11:51:55.252Z,58.60
2018-10-18T11:54:31.860Z,58.57
2018-10-18T11:57:09.790Z,56.23
2018-10-18T11:59:39.164Z,56.30
2018-10-18T12:02:08.530Z,59.77
2018-10-18T12:04:37.645Z,56.47
2018-10-18T12:07:06.957Z,57.77
2018-10-18T12:09:36.193Z,56.20
2018-10-18T12:12:05.459Z,60.67
2018-10-18T12:14:34.669Z,58.17
2018-10-18T12:17:03.945Z,59.53
2018-10-18T12:19:33.095Z,59.70
2018-10-18T12:22:02.324Z,58.47
2018-10-18T12:24:31.648Z,55.73
2018-10-18T12:27:00.894Z,55.67
2018-10-18T12:29:30.079Z,56.67
2018-10-18T12:31:59.347Z,56.40
2018-10-18T12:34:28.529Z,52.50
2018-10-18T12:36:57.744Z,54.93
2018-10-18T12:39:27.040Z,54.47
2018-10-18T12:41:56.331Z,54.70
2018-10-18T12:44:29.111Z,51.20
2018-10-18T12:46:58.345Z,49.77
2018-10-18T12:49:27.604Z,52.67
2018-10-18T12:51:56.858Z,50.53
2018-10-18T12:54:26.092Z,47.90
2018-10-18T12:56:55.381Z,48.73
2018-10-18T12:59:24.591Z,48.80
2018-10-18T13:01:53.863Z,49.10
2018-10-18T13:04:23.210Z,49.27
2018-10-18T13:06:52.436Z,51.47
2018-10-18T13:09:21.725Z,46.07
2018-10-18T13:11:50.902Z,47.80
2018-10-18T13:14:20.130Z,47.00
2018-10-18T13:16:49.334Z,49.60
2018-10-18T13:19:18.606Z,47.17
2018-10-18T13:21:47.910Z,47.87
2018-10-18T13:24:17.210Z,45.57
2018-10-18T13:26:46.372Z,45.43
2018-10-18T13:29:15.742Z,44.90
2018-10-18T13:31:44.933Z,46.27
2018-10-18T13:34:14.251Z,46.10
2018-10-18T13:36:43.410Z,44.27
2018-10-18T13:39:15.197Z,43.33
2018-10-18T13:41:44.359Z,45.20
2018-10-18T13:44:13.652Z,43.47
2018-10-18T13:46:42.896Z,43.50
2018-10-18T13:49:12.142Z,44.50
2018-10-18T13:51:41.430Z,47.13
2018-10-18T13:54:10.683Z,47.50
2018-10-18T13:56:39.891Z,46.67
2018-10-18T13:59:20.118Z,46.40
2018-10-18T14:01:49.323Z,46.67
2018-10-18T14:04:18.555Z,45.40
2018-10-18T14:06:48.379Z,48.33
2018-10-18T14:09:17.625Z,47.97
2018-10-18T14:11:46.831Z,48.37
2018-10-18T14:14:16.144Z,49.10
2018-10-18T14:16:45.381Z,48.77
2018-10-18T14:19:14.579Z,47.03
2018-10-18T14:21:43.888Z,48.43
2018-10-18T14:24:13.121Z,48.10
2018-10-18T14:26:42.522Z,49.20
2018-10-18T14:29:11.892Z,50.00
2018-10-18T14:31:41.033Z,47.27
2018-10-18T14:34:10.251Z,45.40
2018-10-18T14:36:39.471Z,45.27
2018-10-18T14:39:09.429Z,49.27
2018-10-18T14:41:38.906Z,49.00
2018-10-18T14:44:08.134Z,47.90
2018-10-18T14:46:37.346Z,48.93
2018-10-18T14:49:07.006Z,47.47
2018-10-18T14:51:36.254Z,49.07
2018-10-18T14:54:05.543Z,49.70
2018-10-18T14:56:34.762Z,52.37
2018-10-18T14:59:04.050Z,48.53
2018-10-18T15:01:33.310Z,51.10
2018-10-18T15:04:02.554Z,55.33
2018-10-18T15:06:31.821Z,52.50
2018-10-18T15:09:01.047Z,49.13
2018-10-18T15:11:30.285Z,52.10
2018-10-18T15:13:59.509Z,49.73
2018-10-18T15:16:28.768Z,48.70
2018-10-18T15:18:57.972Z,49.97
2018-10-18T15:21:27.711Z,49.90
2018-10-18T15:23:57.045Z,49.50
2018-10-18T15:26:26.351Z,52.23
2018-10-18T15:28:55.511Z,50.33
2018-10-18T15:31:24.789Z,51.33
2018-10-18T15:33:53.994Z,50.80
2018-10-18T15:36:23.213Z,54.43
2018-10-18T15:38:52.559Z,52.53
2018-10-18T15:41:21.666Z,51.10
2018-10-18T15:43:50.974Z,51.73
2018-10-18T15:46:20.623Z,50.20
2018-10-18T15:48:49.829Z,47.73
2018-10-18T15:51:19.083Z,47.80
2018-10-18T15:53:48.275Z,51.50
2018-10-18T15:56:17.642Z,49.90
2018-10-18T15:58:46.880Z,49.00
2018-10-18T16:01:17.352Z,48.27
2018-10-18T16:03:47.620Z,49.43
2018-10-18T16:06:16.908Z,48.57
2018-10-18T16:08:46.203Z,52.47
2018-10-18T16:11:15.340Z,54.70
2018-10-18T16:13:44.565Z,52.17
2018-10-18T16:16:13.797Z,51.70
2018-10-18T16:18:43.022Z,51.90
2018-10-18T16:21:12.306Z,50.17
2018-10-18T16:23:41.558Z,51.77
2018-10-18T16:26:10.946Z,55.77
2018-10-18T16:28:39.993Z,53.60
2018-10-18T16:31:09.358Z,58.33
2018-10-18T16:33:39.624Z,58.40
2018-10-18T16:36:08.835Z,57.07
2018-10-18T16:38:38.091Z,60.97
2018-10-18T16:41:07.801Z,59.70
2018-10-18T16:43:36.758Z,67.40
2018-10-18T16:46:06.469Z,60.43
2018-10-18T16:48:35.789Z,61.90
2018-10-18T16:51:05.193Z,57.20
2018-10-18T16:53:34.537Z,57.20
2018-10-18T16:56:04.105Z,59.57
2018-10-18T16:58:33.302Z,59.40
2018-10-18T17:01:02.651Z,60.43
2018-10-18T17:03:31.855Z,58.37
2018-10-18T17:06:01.162Z,62.37
2018-10-18T17:08:30.326Z,60.67
2018-10-18T17:10:59.554Z,62.67
2018-10-18T17:13:28.827Z,61.47
2018-10-18T17:15:58.458Z,64.93
2018-10-18T17:18:27.693Z,62.17
2018-10-18T17:20:56.959Z,62.47
2018-10-18T17:23:26.175Z,64.80
2018-10-18T17:25:55.412Z,63.87
2018-10-18T17:28:25.043Z,61.30
2018-10-18T17:30:54.307Z,64.73
2018-10-18T17:33:23.512Z,64.20
2018-10-18T17:35:52.898Z,63.83
2018-10-18T17:38:22.645Z,63.93
2018-10-18T17:40:51.931Z,66.07
2018-10-18T17:43:21.227Z,62.97
2018-10-18T17:45:50.454Z,62.97
2018-10-18T17:48:19.665Z,62.37
2018-10-18T17:50:48.954Z,64.20
2018-10-18T17:53:18.163Z,87.90
2018-10-18T17:55:47.396Z,73.13
2018-10-18T17:58:16.736Z,95.00
2018-10-18T18:00:45.849Z,98.27
2018-10-18T18:03:15.929Z,172.13
2018-10-18T18:05:45.224Z,165.13
2018-10-18T18:08:14.730Z,151.13
2018-10-18T18:10:45.253Z,138.13
2018-10-18T18:13:15.242Z,134.17
2018-10-18T18:15:44.512Z,136.27
2018-10-18T18:18:13.787Z,118.80
2018-10-18T18:20:43.109Z,82.63
2018-10-18T18:23:12.350Z,92.60
2018-10-18T18:25:41.573Z,99.77
2018-10-18T18:28:10.759Z,93.20
2018-10-18T18:30:39.926Z,95.27
2018-10-18T18:33:09.255Z,91.60
2018-10-18T18:35:38.415Z,78.67
2018-10-18T18:38:07.572Z,80.87
2018-10-18T18:40:37.919Z,85.40
2018-10-18T18:43:07.324Z,86.97
2018-10-18T18:45:37.075Z,94.07
2018-10-18T18:48:06.407Z,96.67
2018-10-18T18:50:35.603Z,96.40
2018-10-18T18:53:05.019Z,94.00
2018-10-18T18:55:34.192Z,119.63
2018-10-18T18:58:03.362Z,96.40
2018-10-18T19:00:32.534Z,99.67
2018-10-18T19:03:01.744Z,96.17
2018-10-18T19:05:31.133Z,95.03
2018-10-18T19:08:00.282Z,94.50
2018-10-18T19:10:29.449Z,89.87
2018-10-18T19:12:58.678Z,88.30
2018-10-18T19:15:27.930Z,85.20
2018-10-18T19:17:57.124Z,85.47
2018-10-18T19:20:26.407Z,81.40
2018-10-18T19:22:55.633Z,82.00
2018-10-18T19:25:25.062Z,82.50
2018-10-18T19:27:54.261Z,82.57
2018-10-18T19:30:23.479Z,82.80
2018-10-18T19:32:52.645Z,81.10
2018-10-18T19:35:21.854Z,84.37
2018-10-18T19:37:51.038Z,77.27
2018-10-18T19:40:20.184Z,81.50
2018-10-18T19:42:49.417Z,85.80
2018-10-18T19:45:18.737Z,86.47
2018-10-18T19:47:47.895Z,85.03
2018-10-18T19:50:17.155Z,80.47
2018-10-18T19:52:46.444Z,81.00
2018-10-18T19:55:15.467Z,78.30
2018-10-18T19:57:44.639Z,78.37
2018-10-18T20:00:13.823Z,80.90
2018-10-18T20:02:42.988Z,84.30
2018-10-18T20:05:12.166Z,81.47
2018-10-18T20:07:41.387Z,86.80
2018-10-18T20:10:10.545Z,82.30
2018-10-18T20:12:39.752Z,81.67
2018-10-18T20:15:09.194Z,78.90
2018-10-18T20:17:38.414Z,80.17
2018-10-18T20:20:09.058Z,77.97
2018-10-18T20:22:38.253Z,76.07
2018-10-18T20:25:08.823Z,78.00
2018-10-18T20:27:38.014Z,78.20
2018-10-18T20:30:09.989Z,79.30
2018-10-18T20:32:39.419Z,80.63
2018-10-18T20:35:09.130Z,79.53
2018-10-18T20:37:38.699Z,79.03
2018-10-18T20:40:10.555Z,81.33
2018-10-18T20:42:40.066Z,82.27
2018-10-18T20:45:13.654Z,80.60
2018-10-18T20:47:43.363Z,80.53
2018-10-18T20:50:13.188Z,89.57
2018-10-18T20:52:42.828Z,89.50
2018-10-18T20:55:11.983Z,87.70
2018-10-18T20:57:41.155Z,88.87
2018-10-18T21:00:10.603Z,84.07
2018-10-18T21:02:39.650Z,86.97
2018-10-18T21:05:09.074Z,84.20
2018-10-18T21:07:38.277Z,91.33
2018-10-18T21:10:07.517Z,92.60
2018-10-18T21:12:36.705Z,87.73
2018-10-18T21:15:06.136Z,87.70
2018-10-18T21:17:35.359Z,82.80
2018-10-18T21:20:04.648Z,87.37
2018-10-18T21:22:33.833Z,82.37
2018-10-18T21:25:04.315Z,85.53
2018-10-18T21:27:33.562Z,81.03
2018-10-18T21:30:02.782Z,83.47
2018-10-18T21:32:31.964Z,80.13
2018-10-18T21:35:01.129Z,78.53
2018-10-18T21:37:30.305Z,84.27
2018-10-18T21:39:59.477Z,88.17
2018-10-18T21:42:28.672Z,86.10
2018-10-18T21:44:58.062Z,83.57
2018-10-18T21:47:27.323Z,82.00
2018-10-18T21:49:56.567Z,82.87
2018-10-18T21:52:25.772Z,80.20
2018-10-18T21:54:54.957Z,80.83
2018-10-18T21:57:24.122Z,84.63
2018-10-18T21:59:54.318Z,87.13
2018-10-18T22:02:23.491Z,84.90
2018-10-18T22:04:52.656Z,84.70
2018-10-18T22:07:21.872Z,84.10
2018-10-18T22:09:51.021Z,84.17
2018-10-18T22:12:20.191Z,86.50
2018-10-18T22:14:49.383Z,84.10
2018-10-18T22:17:18.560Z,81.27
2018-10-18T22:19:47.800Z,81.67
2018-10-18T22:22:17.014Z,80.33
2018-10-18T22:24:46.177Z,82.50
2018-10-18T22:27:15.415Z,86.77
2018-10-18T22:29:44.588Z,80.67
2018-10-18T22:32:13.768Z,82.10
2018-10-18T22:34:43.275Z,80.23
2018-10-18T22:37:12.514Z,83.80
2018-10-18T22:39:41.721Z,82.00
2018-10-18T22:42:12.229Z,86.30
2018-10-18T22:44:41.406Z,84.07
2018-10-18T22:47:10.595Z,84.90
2018-10-18T22:49:39.779Z,89.20
2018-10-18T22:52:09.000Z,84.20
2018-10-18T22:54:38.214Z,87.60
2018-10-18T22:57:07.566Z,84.40
2018-10-18T22:59:36.784Z,87.03
2018-10-18T23:02:05.963Z,89.00
2018-10-18T23:04:35.123Z,92.60
2018-10-18T23:07:04.348Z,89.87
2018-10-18T23:09:33.568Z,89.70
2018-10-18T23:12:02.762Z,85.67
2018-10-18T23:14:31.970Z,82.27
2018-10-18T23:17:01.165Z,80.70
2018-10-18T23:19:30.273Z,76.40
2018-10-18T23:21:59.465Z,76.60
2018-10-18T23:24:28.703Z,78.73
2018-10-18T23:26:57.897Z,75.47
2018-10-18T23:29:27.110Z,74.13
2018-10-18T23:31:56.295Z,74.97
2018-10-18T23:34:25.492Z,72.77
2018-10-18T23:36:54.670Z,76.33
2018-10-18T23:39:23.850Z,79.10
2018-10-18T23:41:53.051Z,76.60
2018-10-18T23:44:22.241Z,77.33
2018-10-18T23:46:51.437Z,77.00
2018-10-18T23:49:20.599Z,78.87
2018-10-18T23:51:49.808Z,80.33
2018-10-18T23:54:19.080Z,82.90
2018-10-18T23:56:48.772Z,80.63
2018-10-18T23:59:17.950Z,81.90
